首页
METAR-TAF:

METAR-TAF

机场 :

馬查拉, 厄瓜多尔

纬度: 03-26-07S, 经度: 079-58-40W, 海拔: 52米

当前天气观测

该预报发布于2小时和32分钟前的00:00 UTC
风速3节,风向西南
温度 27°C
湿度 74%
气压 1011 hPa
能见度10公里或以上
多云层高于7000英尺

METAR: SERO 250000Z 22003KT 9999 BKN070 27/22 Q1011

时间: 21:32 (02:32 UTC)


TAF: 丢失

超过4000个机场的气象观测和天气预报(METAR&TAF报告)。

可查询的气象台以黄色和红色小点在地图上表示。

将鼠标移到小点上方,可查看气象台名称。

然后点击查看天气观测和预报。

如需切换地图:点击带黑十字的绿色按钮放大地图;点击带横线的绿色按钮缩小地图;或者点击绿色箭头查看邻近地区的地图。


METAR-TAF: